Oxford, NE (68967)

05:15 AM CST del 25 Febbraio 2017 (GMT -0600)
Brewster | | Change Station

Alt. 2306 ft 40.45 °N, 99.34 °W | Updated 20 minutes ago

Sereno
Sereno
10 °F
Sembra 2 °F
N
5
Vento Variabile Vento da ONO

Oggi
Massima -- | Minima -- °F
--% Possibilità di precip.
Ieri
Massima -- | Minima -- °F
Precip. -- in
Pressione 30.10 in
Visibilità 10.0 miglia
Nuvole Sereno
Raffreddamento del vento 2 °F
Punto di rugiada 6 °F
Umidità 83%
Piovosità 0.00 in
Spessore del manto nevoso Non disponibile.
7:17 AM 6:26 PM
Luna calante, 2% visible
METAR KHDE 251055Z AUTO 29004KT 10SM CLR M12/M14 A3010 RMK AO2 T11211144
Pressione 30.10 in
Visibilità 10.0 miglia
Nuvole Sereno
Raffreddamento del vento 2 °F
Punto di rugiada 6 °F
Umidità 83%
Piovosità 0.00 in
Spessore del manto nevoso Non disponibile.
7:17 AM 6:26 PM
Luna calante, 2% visible
METAR KHDE 251055Z AUTO 29004KT 10SM CLR M12/M14 A3010 RMK AO2 T11211144

Get Your Daily Forecast Email!

Thanks for signing up!

Be on the lookout for a verification email in your inbox.

You'll start receiving the daily forecast at 8 AM.

×

10-Day Weather Forecast

Almanac

Astronomia

Feb. 25, 2017 Alba Tramonto
Ora attuale
Crepuscolo civile
Crepuscolo nautico
Crepuscolo astronomico
Luna
Estensione della luce visibile
Lunghezza del giorno
Tomorrow will be .
, % of the Moon is Illuminated

Gli estremi di oggi

State Highs State Lows

Community

WunderPhotos

Upload Photos

1,962,540 foto caricate!

WunderBlog® & News

Nearby

Qualità dell'aria

  Qualità dell'aria Indice AQ Inquinante
Not available.

Profondità neve

Stazione Profondità Altitudine

Attività sismica

Città  Distanza Mag. Data & Ora
Minimo Magnitudo Mostrato è 2.5.

Temperature delle acque costiere

Località Temperatura

Stations

Stazioni meteo nelle vicinanze

Ubicazione della stazione Temp. Raffreddamento del vento Punto di rugiada Umidità Vento Precip. Alt. Aggiornato Tipo
                   

Watches & Warnings

There are currently no watches in effect.